sensor_id;sensor_type;location;lat;lon;timestamp;temperature;humidity
216;HTU21D;70668;48.81286795;9.14184224;2023-12-20T00:01:35;6.48;93.84
216;HTU21D;70668;48.81286795;9.14184224;2023-12-20T00:04:04;6.49;93.48
216;HTU21D;70668;48.81286795;9.14184224;2023-12-20T00:06:32;6.54;94.03
216;HTU21D;70668;48.81286795;9.14184224;2023-12-20T00:09:01;6.54;94.08
216;HTU21D;70668;48.81286795;9.14184224;2023-12-20T00:11:32;6.49;94.69
216;HTU21D;70668;48.81286795;9.14184224;2023-12-20T00:14:00;6.67;94.12
216;HTU21D;70668;48.81286795;9.14184224;2023-12-20T00:16:29;6.55;95.57
216;HTU21D;70668;48.81286795;9.14184224;2023-12-20T00:18:57;6.48;96.14
216;HTU21D;70668;48.81286795;9.14184224;2023-12-20T00:21:26;6.48;96.52
216;HTU21D;70668;48.81286795;9.14184224;2023-12-20T00:23:54;6.45;96.78
216;HTU21D;70668;48.81286795;9.14184224;2023-12-20T00:26:23;6.44;97.37
216;HTU21D;70668;48.81286795;9.14184224;2023-12-20T00:28:56;6.30;99.03
216;HTU21D;70668;48.81286795;9.14184224;2023-12-20T00:31:24;6.37;97.97
216;HTU21D;70668;48.81286795;9.14184224;2023-12-20T00:33:53;6.30;100.64
216;HTU21D;70668;48.81286795;9.14184224;2023-12-20T00:36:21;6.30;100.64
216;HTU21D;70668;48.81286795;9.14184224;2023-12-20T00:38:50;6.22;100.54
216;HTU21D;70668;48.81286795;9.14184224;2023-12-20T00:41:18;6.29;101.12
216;HTU21D;70668;48.81286795;9.14184224;2023-12-20T00:43:47;6.36;101.38
216;HTU21D;70668;48.81286795;9.14184224;2023-12-20T00:46:18;6.16;103.47
216;HTU21D;70668;48.81286795;9.14184224;2023-12-20T00:48:46;6.23;102.30
216;HTU21D;70668;48.81286795;9.14184224;2023-12-20T00:51:15;6.29;101.90
216;HTU21D;70668;48.81286795;9.14184224;2023-12-20T00:53:43;6.08;103.63
216;HTU21D;70668;48.81286795;9.14184224;2023-12-20T00:56:14;6.31;102.35
216;HTU21D;70668;48.81286795;9.14184224;2023-12-20T00:58:43;6.26;101.48
216;HTU21D;70668;48.81286795;9.14184224;2023-12-20T01:01:11;6.09;104.36
216;HTU21D;70668;48.81286795;9.14184224;2023-12-20T01:03:42;6.01;103.67
216;HTU21D;70668;48.81286795;9.14184224;2023-12-20T01:06:11;6.11;104.95
216;HTU21D;70668;48.81286795;9.14184224;2023-12-20T01:08:41;6.06;105.55
216;HTU21D;70668;48.81286795;9.14184224;2023-12-20T01:11:09;6.04;105.53
216;HTU21D;70668;48.81286795;9.14184224;2023-12-20T01:13:38;5.92;106.42
216;HTU21D;70668;48.81286795;9.14184224;2023-12-20T01:16:06;5.96;106.94
216;HTU21D;70668;48.81286795;9.14184224;2023-12-20T01:18:35;5.87;107.98
216;HTU21D;70668;48.81286795;9.14184224;2023-12-20T01:21:07;5.81;108.56
216;HTU21D;70668;48.81286795;9.14184224;2023-12-20T01:23:35;5.85;107.70
216;HTU21D;70668;48.81286795;9.14184224;2023-12-20T01:26:03;5.78;108.82
216;HTU21D;70668;48.81286795;9.14184224;2023-12-20T01:28:32;5.99;107.62
216;HTU21D;70668;48.81286795;9.14184224;2023-12-20T01:31:00;5.77;109.17
216;HTU21D;70668;48.81286795;9.14184224;2023-12-20T01:33:29;5.63;109.55
216;HTU21D;70668;48.81286795;9.14184224;2023-12-20T01:35:58;5.64;110.26
216;HTU21D;70668;48.81286795;9.14184224;2023-12-20T01:38:29;5.52;110.49
216;HTU21D;70668;48.81286795;9.14184224;2023-12-20T01:40:57;5.66;109.67
216;HTU21D;70668;48.81286795;9.14184224;2023-12-20T01:43:26;5.75;109.26
216;HTU21D;70668;48.81286795;9.14184224;2023-12-20T01:45:55;5.75;109.36
216;HTU21D;70668;48.81286795;9.14184224;2023-12-20T01:48:24;5.77;108.78
216;HTU21D;70668;48.81286795;9.14184224;2023-12-20T01:50:54;5.80;108.87
216;HTU21D;70668;48.81286795;9.14184224;2023-12-20T01:53:24;5.70;109.13
216;HTU21D;70668;48.81286795;9.14184224;2023-12-20T01:55:57;5.50;110.46
216;HTU21D;70668;48.81286795;9.14184224;2023-12-20T01:58:27;5.45;110.63
216;HTU21D;70668;48.81286795;9.14184224;2023-12-20T02:00:56;5.35;110.77
216;HTU21D;70668;48.81286795;9.14184224;2023-12-20T02:03:25;5.47;110.84
216;HTU21D;70668;48.81286795;9.14184224;2023-12-20T02:05:54;5.42;110.81
216;HTU21D;70668;48.81286795;9.14184224;2023-12-20T02:08:23;5.30;110.97
216;HTU21D;70668;48.81286795;9.14184224;2023-12-20T02:10:51;5.36;111.36
216;HTU21D;70668;48.81286795;9.14184224;2023-12-20T02:13:23;5.24;111.19
216;HTU21D;70668;48.81286795;9.14184224;2023-12-20T02:15:52;5.37;111.27
216;HTU21D;70668;48.81286795;9.14184224;2023-12-20T02:18:21;5.36;111.12
216;HTU21D;70668;48.81286795;9.14184224;2023-12-20T02:20:49;5.39;111.32
216;HTU21D;70668;48.81286795;9.14184224;2023-12-20T02:23:21;5.39;111.41
216;HTU21D;70668;48.81286795;9.14184224;2023-12-20T02:25:49;5.46;110.97
216;HTU21D;70668;48.81286795;9.14184224;2023-12-20T02:28:18;5.45;111.02
216;HTU21D;70668;48.81286795;9.14184224;2023-12-20T02:30:48;5.28;110.78
216;HTU21D;70668;48.81286795;9.14184224;2023-12-20T02:33:17;5.28;111.17
216;HTU21D;70668;48.81286795;9.14184224;2023-12-20T02:35:45;5.32;111.01
216;HTU21D;70668;48.81286795;9.14184224;2023-12-20T02:38:14;5.23;111.39
216;HTU21D;70668;48.81286795;9.14184224;2023-12-20T02:40:45;5.25;111.07
216;HTU21D;70668;48.81286795;9.14184224;2023-12-20T02:43:13;5.28;111.17
216;HTU21D;70668;48.81286795;9.14184224;2023-12-20T02:45:42;5.17;111.15
216;HTU21D;70668;48.81286795;9.14184224;2023-12-20T02:48:11;5.25;111.68
216;HTU21D;70668;48.81286795;9.14184224;2023-12-20T02:50:39;5.41;111.20
216;HTU21D;70668;48.81286795;9.14184224;2023-12-20T02:53:08;5.25;110.94
216;HTU21D;70668;48.81286795;9.14184224;2023-12-20T02:55:36;5.37;110.91
216;HTU21D;70668;48.81286795;9.14184224;2023-12-20T02:58:07;5.36;110.33
216;HTU21D;70668;48.81286795;9.14184224;2023-12-20T03:00:36;5.39;111.03
216;HTU21D;70668;48.81286795;9.14184224;2023-12-20T03:03:04;5.57;110.26
216;HTU21D;70668;48.81286795;9.14184224;2023-12-20T03:05:33;5.74;109.04
216;HTU21D;70668;48.81286795;9.14184224;2023-12-20T03:08:01;5.77;107.83
216;HTU21D;70668;48.81286795;9.14184224;2023-12-20T03:10:30;5.80;107.46
216;HTU21D;70668;48.81286795;9.14184224;2023-12-20T03:12:58;5.81;106.98
216;HTU21D;70668;48.81286795;9.14184224;2023-12-20T03:15:29;5.83;107.42
216;HTU21D;70668;48.81286795;9.14184224;2023-12-20T03:17:58;5.83;107.24
216;HTU21D;70668;48.81286795;9.14184224;2023-12-20T03:20:27;5.92;106.78
216;HTU21D;70668;48.81286795;9.14184224;2023-12-20T03:22:58;5.77;106.69
216;HTU21D;70668;48.81286795;9.14184224;2023-12-20T03:25:27;5.78;106.63
216;HTU21D;70668;48.81286795;9.14184224;2023-12-20T03:27:55;5.67;107.37
216;HTU21D;70668;48.81286795;9.14184224;2023-12-20T03:30:24;5.72;107.24
216;HTU21D;70668;48.81286795;9.14184224;2023-12-20T03:32:55;5.81;105.74
216;HTU21D;70668;48.81286795;9.14184224;2023-12-20T03:35:23;5.65;106.42
216;HTU21D;70668;48.81286795;9.14184224;2023-12-20T03:37:52;5.65;106.53
216;HTU21D;70668;48.81286795;9.14184224;2023-12-20T03:40:20;5.72;106.37
216;HTU21D;70668;48.81286795;9.14184224;2023-12-20T03:42:49;5.63;106.70
216;HTU21D;70668;48.81286795;9.14184224;2023-12-20T03:45:17;5.65;106.80
216;HTU21D;70668;48.81286795;9.14184224;2023-12-20T03:47:45;5.80;106.43
216;HTU21D;70668;48.81286795;9.14184224;2023-12-20T03:50:17;5.62;106.60
216;HTU21D;70668;48.81286795;9.14184224;2023-12-20T03:52:46;5.74;106.15
216;HTU21D;70668;48.81286795;9.14184224;2023-12-20T03:55:15;5.61;105.66
216;HTU21D;70668;48.81286795;9.14184224;2023-12-20T03:57:43;5.56;105.10
216;HTU21D;70668;48.81286795;9.14184224;2023-12-20T04:00:13;5.62;104.89
216;HTU21D;70668;48.81286795;9.14184224;2023-12-20T04:02:42;5.57;105.35
216;HTU21D;70668;48.81286795;9.14184224;2023-12-20T04:05:11;5.57;105.62
216;HTU21D;70668;48.81286795;9.14184224;2023-12-20T04:07:42;5.47;106.22
216;HTU21D;70668;48.81286795;9.14184224;2023-12-20T04:10:10;5.47;105.75
216;HTU21D;70668;48.81286795;9.14184224;2023-12-20T04:12:39;5.39;105.93
216;HTU21D;70668;48.81286795;9.14184224;2023-12-20T04:15:08;5.40;106.22
216;HTU21D;70668;48.81286795;9.14184224;2023-12-20T04:17:37;5.41;105.53
216;HTU21D;70668;48.81286795;9.14184224;2023-12-20T04:20:07;5.42;105.71
216;HTU21D;70668;48.81286795;9.14184224;2023-12-20T04:22:36;5.37;105.57
216;HTU21D;70668;48.81286795;9.14184224;2023-12-20T04:25:08;5.38;106.20
216;HTU21D;70668;48.81286795;9.14184224;2023-12-20T04:27:36;5.36;105.94
216;HTU21D;70668;48.81286795;9.14184224;2023-12-20T04:30:09;5.35;105.68
216;HTU21D;70668;48.81286795;9.14184224;2023-12-20T04:32:38;5.31;106.84
216;HTU21D;70668;48.81286795;9.14184224;2023-12-20T04:35:06;5.36;106.23
216;HTU21D;70668;48.81286795;9.14184224;2023-12-20T04:37:35;5.42;106.20
216;HTU21D;70668;48.81286795;9.14184224;2023-12-20T04:40:07;5.27;106.57
216;HTU21D;70668;48.81286795;9.14184224;2023-12-20T04:42:37;5.38;105.50
216;HTU21D;70668;48.81286795;9.14184224;2023-12-20T04:45:06;5.35;105.60
216;HTU21D;70668;48.81286795;9.14184224;2023-12-20T04:47:34;5.35;105.00
216;HTU21D;70668;48.81286795;9.14184224;2023-12-20T04:50:04;5.31;105.67
216;HTU21D;70668;48.81286795;9.14184224;2023-12-20T04:52:33;5.39;105.61
216;HTU21D;70668;48.81286795;9.14184224;2023-12-20T04:55:01;5.48;105.98
216;HTU21D;70668;48.81286795;9.14184224;2023-12-20T04:57:33;5.40;105.66
216;HTU21D;70668;48.81286795;9.14184224;2023-12-20T05:00:01;5.38;106.20
216;HTU21D;70668;48.81286795;9.14184224;2023-12-20T05:02:30;5.40;105.82
216;HTU21D;70668;48.81286795;9.14184224;2023-12-20T05:04:59;5.41;104.97
216;HTU21D;70668;48.81286795;9.14184224;2023-12-20T05:07:27;5.37;105.72
216;HTU21D;70668;48.81286795;9.14184224;2023-12-20T05:09:56;5.37;106.01
216;HTU21D;70668;48.81286795;9.14184224;2023-12-20T05:12:24;5.30;105.93
216;HTU21D;70668;48.81286795;9.14184224;2023-12-20T05:14:55;5.25;106.26
216;HTU21D;70668;48.81286795;9.14184224;2023-12-20T05:17:24;5.38;106.08
216;HTU21D;70668;48.81286795;9.14184224;2023-12-20T05:19:52;5.34;106.27
216;HTU21D;70668;48.81286795;9.14184224;2023-12-20T05:22:21;5.32;106.56
216;HTU21D;70668;48.81286795;9.14184224;2023-12-20T05:24:49;5.38;106.17
216;HTU21D;70668;48.81286795;9.14184224;2023-12-20T05:27:18;5.45;106.49
216;HTU21D;70668;48.81286795;9.14184224;2023-12-20T05:29:46;5.39;106.77
216;HTU21D;70668;48.81286795;9.14184224;2023-12-20T05:32:18;5.30;106.92
216;HTU21D;70668;48.81286795;9.14184224;2023-12-20T05:34:46;5.40;106.46
216;HTU21D;70668;48.81286795;9.14184224;2023-12-20T05:37:15;5.37;106.89
216;HTU21D;70668;48.81286795;9.14184224;2023-12-20T05:39:43;5.40;106.84
216;HTU21D;70668;48.81286795;9.14184224;2023-12-20T05:42:12;5.40;107.27
216;HTU21D;70668;48.81286795;9.14184224;2023-12-20T05:44:40;5.28;107.82
216;HTU21D;70668;48.81286795;9.14184224;2023-12-20T05:47:08;5.38;107.82
216;HTU21D;70668;48.81286795;9.14184224;2023-12-20T05:49:39;5.30;108.39
216;HTU21D;70668;48.81286795;9.14184224;2023-12-20T05:52:08;5.35;108.20
216;HTU21D;70668;48.81286795;9.14184224;2023-12-20T05:54:36;5.39;108.61
216;HTU21D;70668;48.81286795;9.14184224;2023-12-20T05:57:05;5.37;108.56
216;HTU21D;70668;48.81286795;9.14184224;2023-12-20T05:59:33;5.32;109.14
216;HTU21D;70668;48.81286795;9.14184224;2023-12-20T06:02:03;5.31;109.23
216;HTU21D;70668;48.81286795;9.14184224;2023-12-20T06:04:31;5.28;109.20
216;HTU21D;70668;48.81286795;9.14184224;2023-12-20T06:07:02;5.27;109.64
216;HTU21D;70668;48.81286795;9.14184224;2023-12-20T06:09:31;5.35;109.28
216;HTU21D;70668;48.81286795;9.14184224;2023-12-20T06:12:00;5.35;109.37
216;HTU21D;70668;48.81286795;9.14184224;2023-12-20T06:14:28;5.37;109.47
216;HTU21D;70668;48.81286795;9.14184224;2023-12-20T06:16:57;5.37;109.52
216;HTU21D;70668;48.81286795;9.14184224;2023-12-20T06:19:26;5.37;109.52
216;HTU21D;70668;48.81286795;9.14184224;2023-12-20T06:21:55;5.45;109.18
216;HTU21D;70668;48.81286795;9.14184224;2023-12-20T06:24:26;5.39;109.56
216;HTU21D;70668;48.81286795;9.14184224;2023-12-20T06:26:55;5.49;109.77
216;HTU21D;70668;48.81286795;9.14184224;2023-12-20T06:29:23;5.51;109.26
216;HTU21D;70668;48.81286795;9.14184224;2023-12-20T06:31:52;5.46;109.52
216;HTU21D;70668;48.81286795;9.14184224;2023-12-20T06:34:20;5.49;109.52
216;HTU21D;70668;48.81286795;9.14184224;2023-12-20T06:36:49;5.49;109.67
216;HTU21D;70668;48.81286795;9.14184224;2023-12-20T06:39:17;5.53;109.89
216;HTU21D;70668;48.81286795;9.14184224;2023-12-20T06:41:48;5.55;109.17
216;HTU21D;70668;48.81286795;9.14184224;2023-12-20T06:44:17;5.54;109.07
216;HTU21D;70668;48.81286795;9.14184224;2023-12-20T06:46:45;5.55;108.97
216;HTU21D;70668;48.81286795;9.14184224;2023-12-20T06:49:14;5.60;109.18
216;HTU21D;70668;48.81286795;9.14184224;2023-12-20T06:51:44;5.67;108.75
216;HTU21D;70668;48.81286795;9.14184224;2023-12-20T06:54:12;5.69;108.71
216;HTU21D;70668;48.81286795;9.14184224;2023-12-20T06:56:41;5.66;108.19
216;HTU21D;70668;48.81286795;9.14184224;2023-12-20T06:59:12;5.68;108.45
216;HTU21D;70668;48.81286795;9.14184224;2023-12-20T07:01:41;5.76;108.36
216;HTU21D;70668;48.81286795;9.14184224;2023-12-20T07:04:09;5.67;107.95
216;HTU21D;70668;48.81286795;9.14184224;2023-12-20T07:06:37;5.66;107.85
216;HTU21D;70668;48.81286795;9.14184224;2023-12-20T07:09:06;5.81;107.43
216;HTU21D;70668;48.81286795;9.14184224;2023-12-20T07:11:35;5.68;107.40
216;HTU21D;70668;48.81286795;9.14184224;2023-12-20T07:14:04;5.75;107.19
216;HTU21D;70668;48.81286795;9.14184224;2023-12-20T07:16:35;5.70;107.92
216;HTU21D;70668;48.81286795;9.14184224;2023-12-20T07:19:04;5.74;107.84
216;HTU21D;70668;48.81286795;9.14184224;2023-12-20T07:21:32;5.65;107.49
216;HTU21D;70668;48.81286795;9.14184224;2023-12-20T07:24:00;5.65;107.75
216;HTU21D;70668;48.81286795;9.14184224;2023-12-20T07:26:32;5.65;107.65
216;HTU21D;70668;48.81286795;9.14184224;2023-12-20T07:29:00;5.64;106.27
216;HTU21D;70668;48.81286795;9.14184224;2023-12-20T07:31:29;5.68;105.81
216;HTU21D;70668;48.81286795;9.14184224;2023-12-20T07:34:00;5.65;105.36
216;HTU21D;70668;48.81286795;9.14184224;2023-12-20T07:36:29;5.65;103.92
216;HTU21D;70668;48.81286795;9.14184224;2023-12-20T07:38:57;5.65;103.48
216;HTU21D;70668;48.81286795;9.14184224;2023-12-20T07:41:26;5.59;103.89
216;HTU21D;70668;48.81286795;9.14184224;2023-12-20T07:43:54;5.52;103.52
216;HTU21D;70668;48.81286795;9.14184224;2023-12-20T07:46:23;5.48;104.28
216;HTU21D;70668;48.81286795;9.14184224;2023-12-20T07:48:51;5.52;103.00
216;HTU21D;70668;48.81286795;9.14184224;2023-12-20T07:51:22;5.53;103.05
216;HTU21D;70668;48.81286795;9.14184224;2023-12-20T07:53:51;5.42;102.67
216;HTU21D;70668;48.81286795;9.14184224;2023-12-20T07:56:20;5.38;102.69
216;HTU21D;70668;48.81286795;9.14184224;2023-12-20T07:58:48;5.35;102.63
216;HTU21D;70668;48.81286795;9.14184224;2023-12-20T08:01:17;5.27;102.62
216;HTU21D;70668;48.81286795;9.14184224;2023-12-20T08:03:46;5.27;102.39
216;HTU21D;70668;48.81286795;9.14184224;2023-12-20T08:06:14;5.22;101.70
216;HTU21D;70668;48.81286795;9.14184224;2023-12-20T08:08:45;5.06;103.15
216;HTU21D;70668;48.81286795;9.14184224;2023-12-20T08:11:14;5.11;102.42
216;HTU21D;70668;48.81286795;9.14184224;2023-12-20T08:13:43;5.01;102.07
216;HTU21D;70668;48.81286795;9.14184224;2023-12-20T08:16:11;5.09;102.79
216;HTU21D;70668;48.81286795;9.14184224;2023-12-20T08:18:43;5.05;102.51
216;HTU21D;70668;48.81286795;9.14184224;2023-12-20T08:21:11;5.06;101.96
216;HTU21D;70668;48.81286795;9.14184224;2023-12-20T08:23:40;5.05;101.91
216;HTU21D;70668;48.81286795;9.14184224;2023-12-20T08:26:11;4.96;101.70
216;HTU21D;70668;48.81286795;9.14184224;2023-12-20T08:28:39;4.97;101.88
216;HTU21D;70668;48.81286795;9.14184224;2023-12-20T08:31:13;4.96;102.16
216;HTU21D;70668;48.81286795;9.14184224;2023-12-20T08:33:43;5.01;100.96
216;HTU21D;70668;48.81286795;9.14184224;2023-12-20T08:36:12;4.94;101.90
216;HTU21D;70668;48.81286795;9.14184224;2023-12-20T08:38:40;4.93;100.96
216;HTU21D;70668;48.81286795;9.14184224;2023-12-20T08:41:11;4.81;101.01
216;HTU21D;70668;48.81286795;9.14184224;2023-12-20T08:43:40;4.87;100.66
216;HTU21D;70668;48.81286795;9.14184224;2023-12-20T08:46:08;5.00;99.61
216;HTU21D;70668;48.81286795;9.14184224;2023-12-20T08:48:38;5.00;99.07
216;HTU21D;70668;48.81286795;9.14184224;2023-12-20T08:51:06;5.02;99.32
216;HTU21D;70668;48.81286795;9.14184224;2023-12-20T08:53:35;5.20;98.50
216;HTU21D;70668;48.81286795;9.14184224;2023-12-20T08:56:04;5.21;99.08
216;HTU21D;70668;48.81286795;9.14184224;2023-12-20T08:58:35;5.28;98.16
216;HTU21D;70668;48.81286795;9.14184224;2023-12-20T09:01:03;5.20;98.93
216;HTU21D;70668;48.81286795;9.14184224;2023-12-20T09:03:33;5.23;99.00
216;HTU21D;70668;48.81286795;9.14184224;2023-12-20T09:06:01;5.35;98.06
216;HTU21D;70668;48.81286795;9.14184224;2023-12-20T09:08:31;5.37;97.99
216;HTU21D;70668;48.81286795;9.14184224;2023-12-20T09:10:59;5.30;98.48
216;HTU21D;70668;48.81286795;9.14184224;2023-12-20T09:13:28;5.45;97.61
216;HTU21D;70668;48.81286795;9.14184224;2023-12-20T09:16:00;5.46;98.95
216;HTU21D;70668;48.81286795;9.14184224;2023-12-20T09:18:28;5.52;97.24
216;HTU21D;70668;48.81286795;9.14184224;2023-12-20T09:20:57;5.55;96.95
216;HTU21D;70668;48.81286795;9.14184224;2023-12-20T09:23:25;5.59;96.35
216;HTU21D;70668;48.81286795;9.14184224;2023-12-20T09:25:54;5.64;96.99
216;HTU21D;70668;48.81286795;9.14184224;2023-12-20T09:28:22;5.68;96.17
216;HTU21D;70668;48.81286795;9.14184224;2023-12-20T09:30:51;5.75;95.26
216;HTU21D;70668;48.81286795;9.14184224;2023-12-20T09:33:22;5.76;92.65
216;HTU21D;70668;48.81286795;9.14184224;2023-12-20T09:35:50;5.84;91.60
216;HTU21D;70668;48.81286795;9.14184224;2023-12-20T09:38:19;5.91;92.24
216;HTU21D;70668;48.81286795;9.14184224;2023-12-20T09:40:48;5.92;91.63
216;HTU21D;70668;48.81286795;9.14184224;2023-12-20T09:43:19;5.92;89.17
216;HTU21D;70668;48.81286795;9.14184224;2023-12-20T09:45:48;5.87;89.05
216;HTU21D;70668;48.81286795;9.14184224;2023-12-20T09:48:18;5.94;90.14
216;HTU21D;70668;48.81286795;9.14184224;2023-12-20T09:50:50;5.83;88.93
216;HTU21D;70668;48.81286795;9.14184224;2023-12-20T09:53:20;6.01;87.51
216;HTU21D;70668;48.81286795;9.14184224;2023-12-20T09:55:55;6.02;87.02
216;HTU21D;70668;48.81286795;9.14184224;2023-12-20T09:58:26;6.05;88.29
216;HTU21D;70668;48.81286795;9.14184224;2023-12-20T10:00:55;6.17;87.09
216;HTU21D;70668;48.81286795;9.14184224;2023-12-20T10:03:25;6.15;89.90
216;HTU21D;70668;48.81286795;9.14184224;2023-12-20T10:05:57;6.22;86.37
216;HTU21D;70668;48.81286795;9.14184224;2023-12-20T10:08:26;6.38;85.90
216;HTU21D;70668;48.81286795;9.14184224;2023-12-20T10:10:55;6.26;83.23
216;HTU21D;70668;48.81286795;9.14184224;2023-12-20T10:13:28;6.29;84.27
216;HTU21D;70668;48.81286795;9.14184224;2023-12-20T10:15:56;6.26;85.84
216;HTU21D;70668;48.81286795;9.14184224;2023-12-20T10:18:29;6.13;81.13
216;HTU21D;70668;48.81286795;9.14184224;2023-12-20T10:21:00;6.15;83.11
216;HTU21D;70668;48.81286795;9.14184224;2023-12-20T10:23:28;6.25;85.01
216;HTU21D;70668;48.81286795;9.14184224;2023-12-20T10:25:58;6.11;84.02
216;HTU21D;70668;48.81286795;9.14184224;2023-12-20T10:28:27;6.16;86.90
216;HTU21D;70668;48.81286795;9.14184224;2023-12-20T10:31:01;6.12;84.81
216;HTU21D;70668;48.81286795;9.14184224;2023-12-20T10:33:30;5.99;85.92
216;HTU21D;70668;48.81286795;9.14184224;2023-12-20T10:36:04;5.96;86.34
216;HTU21D;70668;48.81286795;9.14184224;2023-12-20T10:38:33;6.05;88.24
216;HTU21D;70668;48.81286795;9.14184224;2023-12-20T10:41:04;5.96;86.71
216;HTU21D;70668;48.81286795;9.14184224;2023-12-20T10:43:34;5.80;87.70
216;HTU21D;70668;48.81286795;9.14184224;2023-12-20T10:46:03;5.86;88.47
216;HTU21D;70668;48.81286795;9.14184224;2023-12-20T10:48:32;5.89;87.18
216;HTU21D;70668;48.81286795;9.14184224;2023-12-20T10:51:05;5.77;87.65
216;HTU21D;70668;48.81286795;9.14184224;2023-12-20T10:53:33;5.83;87.96
216;HTU21D;70668;48.81286795;9.14184224;2023-12-20T10:56:05;5.79;85.29
216;HTU21D;70668;48.81286795;9.14184224;2023-12-20T10:58:36;5.82;84.93
216;HTU21D;70668;48.81286795;9.14184224;2023-12-20T11:01:06;5.82;85.61
216;HTU21D;70668;48.81286795;9.14184224;2023-12-20T11:03:36;5.97;85.29
216;HTU21D;70668;48.81286795;9.14184224;2023-12-20T11:06:10;5.82;84.74
216;HTU21D;70668;48.81286795;9.14184224;2023-12-20T11:08:47;5.90;85.26
216;HTU21D;70668;48.81286795;9.14184224;2023-12-20T11:11:26;6.02;82.84
216;HTU21D;70668;48.81286795;9.14184224;2023-12-20T11:14:01;5.86;82.26
216;HTU21D;70668;48.81286795;9.14184224;2023-12-20T11:16:31;5.79;81.65
216;HTU21D;70668;48.81286795;9.14184224;2023-12-20T11:19:04;5.92;82.62
216;HTU21D;70668;48.81286795;9.14184224;2023-12-20T11:21:35;5.80;83.81
216;HTU21D;70668;48.81286795;9.14184224;2023-12-20T11:24:05;5.84;85.66
216;HTU21D;70668;48.81286795;9.14184224;2023-12-20T11:26:33;5.94;84.13
216;HTU21D;70668;48.81286795;9.14184224;2023-12-20T11:29:30;5.92;83.94
216;HTU21D;70668;48.81286795;9.14184224;2023-12-20T11:32:00;5.83;81.94
216;HTU21D;70668;48.81286795;9.14184224;2023-12-20T11:34:32;5.75;82.07
216;HTU21D;70668;48.81286795;9.14184224;2023-12-20T11:37:04;5.90;84.07
216;HTU21D;70668;48.81286795;9.14184224;2023-12-20T11:39:33;5.89;81.26
216;HTU21D;70668;48.81286795;9.14184224;2023-12-20T11:42:04;5.87;84.29
216;HTU21D;70668;48.81286795;9.14184224;2023-12-20T11:44:33;5.80;81.85
216;HTU21D;70668;48.81286795;9.14184224;2023-12-20T11:47:02;5.92;83.90
216;HTU21D;70668;48.81286795;9.14184224;2023-12-20T11:49:31;5.78;81.55
216;HTU21D;70668;48.81286795;9.14184224;2023-12-20T11:51:59;5.96;82.13
216;HTU21D;70668;48.81286795;9.14184224;2023-12-20T11:54:32;5.86;81.78
216;HTU21D;70668;48.81286795;9.14184224;2023-12-20T11:57:01;5.80;80.30
216;HTU21D;70668;48.81286795;9.14184224;2023-12-20T11:59:30;5.86;80.30
216;HTU21D;70668;48.81286795;9.14184224;2023-12-20T12:01:59;5.92;81.88
216;HTU21D;70668;48.81286795;9.14184224;2023-12-20T12:04:28;5.94;80.50
216;HTU21D;70668;48.81286795;9.14184224;2023-12-20T12:06:57;5.92;81.43
216;HTU21D;70668;48.81286795;9.14184224;2023-12-20T12:09:26;5.94;82.76
216;HTU21D;70668;48.81286795;9.14184224;2023-12-20T12:11:57;6.07;81.37
216;HTU21D;70668;48.81286795;9.14184224;2023-12-20T12:14:25;6.05;80.78
216;HTU21D;70668;48.81286795;9.14184224;2023-12-20T12:16:54;6.07;82.69
216;HTU21D;70668;48.81286795;9.14184224;2023-12-20T12:19:23;6.13;81.97
216;HTU21D;70668;48.81286795;9.14184224;2023-12-20T12:22:04;6.13;80.10
216;HTU21D;70668;48.81286795;9.14184224;2023-12-20T12:24:32;6.29;80.63
216;HTU21D;70668;48.81286795;9.14184224;2023-12-20T12:27:05;6.26;79.21
216;HTU21D;70668;48.81286795;9.14184224;2023-12-20T12:29:34;6.26;79.72
216;HTU21D;70668;48.81286795;9.14184224;2023-12-20T12:32:05;6.21;82.18
216;HTU21D;70668;48.81286795;9.14184224;2023-12-20T12:34:34;6.11;77.97
216;HTU21D;70668;48.81286795;9.14184224;2023-12-20T12:37:04;5.99;79.30
216;HTU21D;70668;48.81286795;9.14184224;2023-12-20T12:39:32;5.97;79.35
216;HTU21D;70668;48.81286795;9.14184224;2023-12-20T12:42:01;6.16;78.49
216;HTU21D;70668;48.81286795;9.14184224;2023-12-20T12:44:32;6.37;79.75
216;HTU21D;70668;48.81286795;9.14184224;2023-12-20T12:47:00;6.23;76.90
216;HTU21D;70668;48.81286795;9.14184224;2023-12-20T12:49:29;6.19;77.47
216;HTU21D;70668;48.81286795;9.14184224;2023-12-20T12:51:57;6.28;77.72
216;HTU21D;70668;48.81286795;9.14184224;2023-12-20T12:54:26;6.26;80.07
216;HTU21D;70668;48.81286795;9.14184224;2023-12-20T12:56:54;6.33;79.80
216;HTU21D;70668;48.81286795;9.14184224;2023-12-20T12:59:23;6.29;79.66
216;HTU21D;70668;48.81286795;9.14184224;2023-12-20T13:01:55;6.16;77.50
216;HTU21D;70668;48.81286795;9.14184224;2023-12-20T13:04:24;6.36;79.60
216;HTU21D;70668;48.81286795;9.14184224;2023-12-20T13:06:52;6.15;79.17
216;HTU21D;70668;48.81286795;9.14184224;2023-12-20T13:09:21;6.20;80.05
216;HTU21D;70668;48.81286795;9.14184224;2023-12-20T13:11:49;6.21;77.98
216;HTU21D;70668;48.81286795;9.14184224;2023-12-20T13:14:18;6.02;80.13
216;HTU21D;70668;48.81286795;9.14184224;2023-12-20T13:16:46;5.96;79.35
216;HTU21D;70668;48.81286795;9.14184224;2023-12-20T13:19:17;5.95;78.72
216;HTU21D;70668;48.81286795;9.14184224;2023-12-20T13:21:46;6.04;78.11
216;HTU21D;70668;48.81286795;9.14184224;2023-12-20T13:24:14;6.15;78.15
216;HTU21D;70668;48.81286795;9.14184224;2023-12-20T13:26:44;6.20;77.88
216;HTU21D;70668;48.81286795;9.14184224;2023-12-20T13:29:12;6.27;77.02
216;HTU21D;70668;48.81286795;9.14184224;2023-12-20T13:31:41;6.35;76.72
216;HTU21D;70668;48.81286795;9.14184224;2023-12-20T13:34:09;6.33;77.03
216;HTU21D;70668;48.81286795;9.14184224;2023-12-20T13:36:41;6.38;75.94
216;HTU21D;70668;48.81286795;9.14184224;2023-12-20T13:39:11;6.17;79.10
216;HTU21D;70668;48.81286795;9.14184224;2023-12-20T13:41:40;6.13;77.65
216;HTU21D;70668;48.81286795;9.14184224;2023-12-20T13:44:08;6.10;79.64
216;HTU21D;70668;48.81286795;9.14184224;2023-12-20T13:46:38;6.14;80.17
216;HTU21D;70668;48.81286795;9.14184224;2023-12-20T13:49:06;6.20;78.95
216;HTU21D;70668;48.81286795;9.14184224;2023-12-20T13:51:35;6.01;80.13